Time;durP1;ratioP1;P1;durP2;ratioP2;P2;SDS_P1;SDS_P2;PMS_P1;PMS_P2;Temp;Humidity;BMP_temperature;BMP_pressure;BME280_temperature;BME280_humidity;BME280_pressure;Samples;Min_cycle;Max_cycle;Signal;HPM_P1;HPM_P2
2022/06/05 00:00:08;;;;;;;15.05;14.55;;;;;;;-141.02;100.00;83741.91;5133550;27;20602;-73
2022/06/05 00:02:53;;;;;;;14.70;14.20;;;;;;;-141.02;100.00;83699.16;5133867;27;20264;-73
2022/06/05 00:05:26;;;;;;;15.05;14.55;;;;;;;-141.02;100.00;83798.25;5133876;27;20271;-72
2022/06/05 00:08:06;;;;;;;15.10;14.60;;;;;;;-141.02;100.00;83788.53;5133481;27;20195;-72
2022/06/05 00:10:39;;;;;;;15.13;14.55;;;;;;;-141.02;100.00;83862.38;5133471;27;20679;-72
2022/06/05 00:13:15;;;;;;;15.38;14.77;;;;;;;-141.02;100.00;83881.78;5133351;27;20195;-73
2022/06/05 00:15:42;;;;;;;15.25;14.65;;;;;;;-141.02;100.00;83922.59;5133733;27;20245;-72
2022/06/05 00:18:11;;;;;;;15.40;14.80;;;;;;;-141.02;100.00;83936.19;5133271;27;20224;-72
2022/06/05 00:20:38;;;;;;;14.90;14.40;;;;;;;-141.02;100.00;84017.81;5133454;27;20232;-84
2022/06/05 00:23:05;;;;;;;15.63;15.02;;;;;;;-141.02;100.00;84035.28;5133169;27;20287;-72
2022/06/05 00:25:43;;;;;;;14.80;14.30;;;;;;;-141.02;100.00;84103.31;5133900;27;20276;-73
2022/06/05 00:28:17;;;;;;;14.95;14.45;;;;;;;-141.02;100.00;84105.25;5133484;27;20216;-73
2022/06/05 00:30:54;;;;;;;15.00;14.50;;;;;;;-141.02;100.00;84153.81;5133156;27;20180;-73
2022/06/05 00:33:31;;;;;;;15.18;14.57;;;;;;;-141.02;100.00;84188.81;5133401;27;20184;-73
2022/06/05 00:36:03;;;;;;;15.07;14.48;;;;;;;-141.02;100.00;84188.81;5133416;27;20249;-73
2022/06/05 00:38:40;;;;;;;15.02;14.43;;;;;;;-141.02;100.00;84212.13;5132590;27;20195;-73
2022/06/05 00:41:27;;;;;;;15.10;14.50;;;;;;;-141.02;100.00;84258.75;5133255;27;20247;-72
2022/06/05 00:43:59;;;;;;;14.57;14.07;;;;;;;-141.02;100.00;84313.16;5132905;27;20283;-73
2022/06/05 00:46:27;;;;;;;14.90;14.30;;;;;;;-141.02;100.00;84282.09;5132889;27;20715;-73
2022/06/05 00:48:56;;;;;;;15.00;14.40;;;;;;;-141.02;100.00;84328.72;5133111;27;20291;-73
2022/06/05 00:51:23;;;;;;;14.00;13.50;;;;;;;-141.02;100.00;84373.41;5132910;27;20253;-73
2022/06/05 00:53:51;;;;;;;14.60;14.10;;;;;;;-141.02;100.00;84433.66;5133018;27;20245;-73
2022/06/05 00:56:19;;;;;;;14.93;14.32;;;;;;;-141.02;100.00;84453.09;5132778;27;20283;-73
2022/06/05 00:58:46;;;;;;;14.90;14.30;;;;;;;-141.02;100.00;84499.72;5133013;27;20188;-72
2022/06/05 01:01:13;;;;;;;14.55;14.05;;;;;;;-141.02;100.00;84600.78;5132970;27;20663;-83
2022/06/05 01:03:41;;;;;;;13.85;13.35;;;;;;;-141.02;100.00;84699.91;5132963;28;20220;-73
2022/06/05 01:06:09;;;;;;;14.60;14.10;;;;;;;-141.02;100.00;84810.69;5132728;28;20266;-73
2022/06/05 01:08:36;;;;;;;14.23;13.73;;;;;;;-141.02;100.00;84911.75;5132962;27;20550;-72
2022/06/05 01:11:13;;;;;;;14.35;13.85;;;;;;;-141.02;100.00;84989.50;5132553;28;20196;-73
2022/06/05 01:13:59;;;;;;;14.45;13.95;;;;;;;-141.02;100.00;85024.47;5132651;28;20192;-73
2022/06/05 01:16:30;;;;;;;14.40;13.90;;;;;;;-141.02;100.00;85008.94;5132892;28;20223;-72
2022/06/05 01:19:12;;;;;;;14.32;13.82;;;;;;;-141.02;100.00;85028.38;5132628;27;20249;-73
2022/06/05 01:22:07;;;;;;;14.15;13.65;;;;;;;-141.02;100.00;85104.19;5132798;28;20216;-72
2022/06/05 01:24:49;;;;;;;14.07;13.57;;;;;;;-141.02;100.00;85076.97;5132738;28;20220;-73
2022/06/05 01:27:21;;;;;;;13.85;13.35;;;;;;;-141.02;100.00;85160.53;5132769;28;20220;-73
2022/06/05 01:29:52;;;;;;;13.50;13.00;;;;;;;-141.02;100.00;85213.03;5132843;28;20276;-72
2022/06/05 01:32:29;;;;;;;13.73;13.23;;;;;;;-141.02;100.00;85312.16;5132462;28;20200;-72
2022/06/05 01:35:01;;;;;;;14.15;13.65;;;;;;;-141.02;100.00;85316.03;5132759;28;20271;-72
2022/06/05 01:37:34;;;;;;;14.13;13.63;;;;;;;-141.02;100.00;85393.81;5132404;28;20275;-73
2022/06/05 01:40:06;;;;;;;14.50;13.90;;;;;;;-141.02;100.00;85413.25;5132664;27;20248;-72
2022/06/05 01:42:38;;;;;;;13.75;13.25;;;;;;;-141.02;100.00;85382.13;5132339;28;20228;-73
2022/06/05 01:45:10;;;;;;;13.48;12.98;;;;;;;-141.02;100.00;85457.94;5132331;28;20271;-72
2022/06/05 01:47:41;;;;;;;13.05;12.65;;;;;;;-141.02;100.00;85537.66;5132598;28;20271;-71
2022/06/05 01:50:12;;;;;;;13.00;12.60;;;;;;;-141.02;100.00;85533.75;5134765;27;20626;-72
2022/06/05 01:52:45;;;;;;;13.68;13.18;;;;;;;-141.02;100.00;85592.09;5136181;27;20216;-72
2022/06/05 01:55:18;;;;;;;13.52;13.02;;;;;;;-141.02;100.00;85630.97;5136113;27;20235;-73
2022/06/05 01:57:49;;;;;;;13.55;13.05;;;;;;;-141.02;100.00;85704.84;5136294;27;20619;-73
2022/06/05 02:00:20;;;;;;;12.90;12.50;;;;;;;-141.02;100.00;85728.16;5135946;27;20360;-73
2022/06/05 02:02:54;;;;;;;13.20;12.70;;;;;;;-141.02;100.00;85765.09;5135980;27;20558;-73
2022/06/05 02:05:26;;;;;;;13.45;12.95;;;;;;;-141.02;100.00;85708.72;5136280;27;20215;-73
2022/06/05 02:07:58;;;;;;;13.88;13.38;;;;;;;-141.02;100.00;85669.84;5136468;27;20241;-73
2022/06/05 02:10:29;;;;;;;13.55;13.05;;;;;;;-141.02;100.00;85638.75;5135840;27;20228;-73
2022/06/05 02:12:59;;;;;;;13.32;12.82;;;;;;;-141.02;100.00;85667.91;5135730;27;20184;-72
2022/06/05 02:15:28;;;;;;;13.70;13.20;;;;;;;-141.02;100.00;85658.19;5135736;27;20319;-72
2022/06/05 02:17:57;;;;;;;13.50;13.00;;;;;;;-141.02;100.00;85710.66;5135586;27;20619;-73
2022/06/05 02:20:24;;;;;;;12.95;12.55;;;;;;;-141.02;100.00;85728.16;5135801;27;20228;-73
2022/06/05 02:22:53;;;;;;;12.85;12.45;;;;;;;-141.02;100.00;85858.41;5135919;27;20245;-72
2022/06/05 02:25:24;;;;;;;12.90;12.50;;;;;;;-141.02;100.00;85926.47;5135470;27;20227;-73
2022/06/05 02:27:51;;;;;;;12.60;12.20;;;;;;;-141.02;100.00;85687.34;5135850;27;20618;-73
2022/06/05 02:30:20;;;;;;;13.10;12.60;;;;;;;-141.02;100.00;86072.28;5135732;27;20224;-84
2022/06/05 02:33:01;;;;;;;13.25;12.75;;;;;;;-141.02;100.00;85953.69;5135385;27;20206;-73
2022/06/05 02:35:36;;;;;;;12.75;12.35;;;;;;;-141.02;100.00;86056.72;5135649;27;20196;-72
2022/06/05 02:38:21;;;;;;;12.82;12.43;;;;;;;-141.02;100.00;86060.63;5135318;27;20181;-73
2022/06/05 02:40:58;;;;;;;12.60;12.20;;;;;;;-141.02;100.00;86058.66;5135555;27;20212;-72
2022/06/05 02:43:32;;;;;;;12.35;11.95;;;;;;;-141.02;100.00;86050.91;5135183;27;20191;-73
2022/06/05 02:46:07;;;;;;;12.70;12.30;;;;;;;-141.02;100.00;86000.34;5135219;27;20326;-72
2022/06/05 02:48:38;;;;;;;11.38;10.98;;;;;;;-141.02;100.00;86220.03;5135423;27;20270;-73
2022/06/05 02:51:10;;;;;;;12.77;12.30;;;;;;;-141.02;100.00;86253.09;5135320;27;20606;-73
2022/06/05 02:53:49;;;;;;;12.25;11.85;;;;;;;-141.02;100.00;86181.16;5135328;27;20184;-72
2022/06/05 02:56:17;;;;;;;12.50;12.10;;;;;;;-141.02;100.00;86155.88;5135019;27;20188;-72
2022/06/05 02:58:44;;;;;;;12.45;12.05;;;;;;;-141.02;100.00;86202.53;5134867;27;20193;-72
2022/06/05 03:03:58;;;;;;;11.60;11.20;;;;;;;-141.02;100.00;86264.78;5134945;27;20188;-72
2022/06/05 03:06:25;;;;;;;11.60;11.20;;;;;;;-141.02;100.00;86319.22;5134753;27;20262;-72
2022/06/05 03:08:52;;;;;;;11.30;10.90;;;;;;;-141.02;100.00;86307.53;5134622;27;20189;-72
2022/06/05 03:11:19;;;;;;;11.18;10.77;;;;;;;-141.02;100.00;86373.66;5134602;27;20193;-72
2022/06/05 03:13:47;;;;;;;10.70;10.40;;;;;;;-141.02;100.00;86400.88;5134912;27;20197;-73
2022/06/05 03:16:15;;;;;;;10.70;10.40;;;;;;;-141.02;100.00;86410.59;5134749;27;20203;-73
2022/06/05 03:18:43;;;;;;;10.80;10.50;;;;;;;-141.02;100.00;86420.31;5134507;27;20617;-73
2022/06/05 03:21:10;;;;;;;10.82;10.52;;;;;;;-141.02;100.00;86381.44;5135155;27;20314;-73
2022/06/05 03:23:37;;;;;;;10.70;10.40;;;;;;;-141.02;100.00;86379.50;5134662;27;20229;-72
2022/06/05 03:26:04;;;;;;;11.00;10.60;;;;;;;-141.02;100.00;86369.75;5134853;27;20217;-73
